To NAV CANADA Home Page Login to a new session Search on AWWS site Feedback and Comments Disclaimer Vers la page française équivalente Tips FAQ What's new on the site To the Forecasts and Observations / NOTAM section To "File a Flight Plan" website Publications and other links Update of the User's profile FIC Telephone Numbers My Weather Data Folder Route Weather Data Regional Weather Data Local Weather Data To the Forecasts and Observations / NOTAM section
Request Generated 06/26/2017 at 22:32:15 UTC . Weather information available at that time is displayed.

METAR/TAF

FORT ST. JOHN/BC    

METAR CYXJ 262200Z 24014G19KT 15SM FEW060CB SCT210 24/00 A2964 RMK
CB2CI1 SLP039 DENSITY ALT 4200FT=
METAR CYXJ 262100Z 21014G20KT 15SM FEW060CB SCT140 24/M00 A2966 RMK
CB2AC1 SLP045 DENSITY ALT 4200FT=
METAR CYXJ 262000Z 22011G20KT 170V250 15SM FEW060CB 23/01 A2968 RMK
CB2 SLP050 DENSITY ALT 4000FT=

TAF CYXJ 261838Z 2619/2707 22015G25KT P6SM FEW060 PROB30 2623/2707
VRB15G25KT 5SM TSRA BKN060CB
RMK NXT FCST BY 270100Z=
Your time UTC time
Weather data provided by Environment Canada and NAV CANADA